Time;durP1;ratioP1;P1;durP2;ratioP2;P2;SDS_P1;SDS_P2;PMS_P1;PMS_P2;Temp;Humidity;BMP_temperature;BMP_pressure;BME280_temperature;BME280_humidity;BME280_pressure;Samples;Min_cycle;Max_cycle;Signal;HPM_P1;HPM_P2
2022/01/04 00:00:05;;;;;;;0.00;0.00;;;7.60;99.90;;;;;;5129766;28;20036;-79
2022/01/04 00:02:32;;;;;;;0.00;0.00;;;7.50;99.90;;;;;;5130233;28;20051;-81
2022/01/04 00:04:59;;;;;;;0.00;0.00;;;7.60;99.90;;;;;;5129991;28;20044;-79
2022/01/04 00:07:26;;;;;;;0.10;0.10;;;7.60;99.90;;;;;;5146731;28;20052;-79
2022/01/04 00:09:53;;;;;;;0.00;0.00;;;7.60;99.90;;;;;;5129836;28;20074;-81
2022/01/04 00:15:06;;;;;;;0.08;0.08;;;7.70;99.90;;;;;;5132235;28;20499;-79
2022/01/04 00:17:32;;;;;;;0.00;0.00;;;7.70;99.90;;;;;;5129874;28;20046;-78
2022/01/04 00:19:59;;;;;;;0.00;0.00;;;7.80;99.90;;;;;;5129241;28;20036;-79
2022/01/04 00:22:26;;;;;;;0.00;0.00;;;7.80;99.90;;;;;;5129636;28;20496;-79
2022/01/04 00:24:52;;;;;;;0.03;0.03;;;7.70;99.90;;;;;;5112480;28;20123;-81
2022/01/04 00:27:19;;;;;;;0.10;0.10;;;7.70;99.90;;;;;;5135164;28;20043;-79
2022/01/04 00:29:46;;;;;;;0.00;0.00;;;7.80;99.90;;;;;;5129229;28;20039;-78
2022/01/04 00:32:13;;;;;;;0.00;0.00;;;7.80;99.90;;;;;;5146029;28;20032;-81
2022/01/04 00:34:41;;;;;;;0.00;0.00;;;8.20;99.90;;;;;;5111258;28;20131;-79
2022/01/04 00:37:08;;;;;;;0.00;0.00;;;7.70;99.90;;;;;;5095874;28;20027;-79
2022/01/04 00:39:35;;;;;;;0.00;0.00;;;7.80;99.90;;;;;;5127720;28;20032;-79
2022/01/04 00:42:02;;;;;;;0.00;0.00;;;7.80;99.90;;;;;;5106867;28;20428;-81
2022/01/04 00:44:29;;;;;;;0.10;0.10;;;7.80;99.90;;;;;;5146203;28;20036;-81
2022/01/04 00:46:56;;;;;;;0.00;0.00;;;7.80;99.90;;;;;;5129496;28;20103;-79
2022/01/04 00:49:22;;;;;;;0.10;0.10;;;7.80;99.90;;;;;;5112689;28;20057;-79
2022/01/04 00:51:52;;;;;;;0.10;0.10;;;7.80;99.90;;;;;;5095995;28;20035;-79
2022/01/04 00:54:20;;;;;;;0.00;0.00;;;7.80;99.90;;;;;;5146453;28;20082;-81
2022/01/04 00:56:48;;;;;;;0.00;0.00;;;7.80;99.90;;;;;;5146350;28;20523;-81
2022/01/04 00:59:15;;;;;;;0.00;0.00;;;7.80;99.90;;;;;;5146053;28;20511;-79
2022/01/04 01:01:42;;;;;;;0.00;0.00;;;7.80;99.90;;;;;;5096094;28;20043;-81
2022/01/04 01:04:09;;;;;;;0.00;0.00;;;7.80;99.90;;;;;;5112286;28;20066;-79
2022/01/04 01:06:36;;;;;;;0.00;0.00;;;7.80;99.90;;;;;;5129147;28;20020;-79
2022/01/04 01:09:04;;;;;;;0.00;0.00;;;7.80;99.90;;;;;;5115633;28;20068;-81
2022/01/04 01:11:31;;;;;;;0.00;0.00;;;8.10;99.90;;;;;;5167133;27;20362;-79
2022/01/04 01:13:58;;;;;;;0.10;0.10;;;7.80;99.90;;;;;;5150395;28;20173;-81
2022/01/04 01:16:25;;;;;;;0.10;0.10;;;7.80;99.90;;;;;;5150008;28;20044;-79
2022/01/04 01:18:51;;;;;;;0.05;0.05;;;7.80;99.90;;;;;;5116497;28;20040;-81
2022/01/04 01:21:18;;;;;;;0.10;0.10;;;7.70;99.90;;;;;;5149723;28;20039;-81
2022/01/04 01:23:45;;;;;;;0.05;0.05;;;7.70;99.90;;;;;;5167070;27;20046;-81
2022/01/04 01:26:12;;;;;;;0.10;0.10;;;7.60;99.90;;;;;;5149580;28;20042;-81
2022/01/04 01:28:38;;;;;;;0.10;0.10;;;7.60;99.90;;;;;;5150033;28;20122;-79
2022/01/04 01:31:06;;;;;;;0.10;0.10;;;7.60;99.90;;;;;;5167263;27;20050;-81
2022/01/04 01:33:33;;;;;;;0.00;0.00;;;7.70;99.90;;;;;;5150169;28;20407;-79
2022/01/04 01:36:00;;;;;;;0.10;0.10;;;7.50;99.90;;;;;;5116062;28;20031;-79
2022/01/04 01:38:27;;;;;;;0.10;0.10;;;7.60;99.90;;;;;;5115596;28;20047;-81
2022/01/04 01:40:54;;;;;;;0.10;0.10;;;7.60;99.90;;;;;;5132701;28;20075;-78
2022/01/04 01:43:23;;;;;;;0.10;0.10;;;7.60;99.90;;;;;;5166272;27;20050;-81
2022/01/04 01:45:53;;;;;;;0.00;0.00;;;7.60;99.90;;;;;;5133393;28;20044;-79
2022/01/04 01:48:20;;;;;;;0.10;0.10;;;7.50;99.90;;;;;;5166203;27;20484;-79
2022/01/04 01:50:47;;;;;;;0.10;0.10;;;7.50;99.90;;;;;;5166726;27;20031;-79
2022/01/04 01:53:14;;;;;;;0.00;0.00;;;7.50;99.90;;;;;;5132352;28;20035;-79
2022/01/04 01:55:41;;;;;;;0.00;0.00;;;7.50;99.90;;;;;;5115600;28;20043;-81
2022/01/04 01:58:08;;;;;;;0.10;0.10;;;7.70;99.90;;;;;;5132482;28;20048;-81
2022/01/04 02:00:35;;;;;;;0.10;0.10;;;7.50;99.90;;;;;;5115072;28;20389;-81
2022/01/04 02:03:02;;;;;;;0.00;0.00;;;7.50;99.90;;;;;;5149058;28;20036;-81
2022/01/04 02:05:29;;;;;;;0.00;0.00;;;7.50;99.90;;;;;;5115211;28;20028;-79
2022/01/04 02:07:58;;;;;;;0.10;0.10;;;7.50;99.90;;;;;;5165852;27;20723;-81
2022/01/04 02:10:25;;;;;;;0.05;0.05;;;7.50;99.90;;;;;;5148465;28;20813;-79
2022/01/04 02:12:54;;;;;;;0.00;0.00;;;7.50;99.90;;;;;;5149009;28;20036;-81
2022/01/04 02:15:23;;;;;;;0.10;0.10;;;7.60;99.90;;;;;;5131752;28;20036;-78
2022/01/04 02:17:50;;;;;;;0.00;0.00;;;7.60;99.90;;;;;;5115532;28;20034;-81
2022/01/04 02:20:18;;;;;;;0.00;0.00;;;7.60;99.90;;;;;;5164732;27;20046;-81
2022/01/04 02:22:45;;;;;;;0.08;0.08;;;7.60;99.90;;;;;;5131921;28;20027;-79
2022/01/04 02:25:12;;;;;;;0.00;0.00;;;7.60;99.90;;;;;;5149028;28;20034;-79
2022/01/04 02:27:42;;;;;;;0.03;0.03;;;7.80;99.90;;;;;;5148469;28;20123;-81
2022/01/04 02:30:12;;;;;;;0.08;0.08;;;7.60;99.90;;;;;;5165888;27;20028;-79
2022/01/04 02:32:39;;;;;;;0.03;0.03;;;7.60;99.90;;;;;;5131638;28;20044;-79
2022/01/04 02:35:06;;;;;;;0.05;0.05;;;7.60;99.90;;;;;;5131649;28;20035;-81
2022/01/04 02:37:33;;;;;;;0.10;0.10;;;7.60;99.90;;;;;;5165062;27;20411;-81
2022/01/04 02:40:00;;;;;;;0.00;0.00;;;7.60;99.90;;;;;;5148635;28;20040;-79
2022/01/04 02:42:26;;;;;;;0.10;0.10;;;8.10;99.90;;;;;;5165175;27;20415;-81
2022/01/04 02:44:53;;;;;;;0.00;0.00;;;7.60;99.90;;;;;;5165383;27;20036;-79
2022/01/04 02:47:20;;;;;;;0.00;0.00;;;7.60;99.90;;;;;;5130876;28;20488;-79
2022/01/04 02:49:47;;;;;;;0.00;0.00;;;7.60;99.90;;;;;;5165487;27;20036;-81
2022/01/04 02:52:14;;;;;;;0.00;0.00;;;7.60;99.90;;;;;;5114632;28;20177;-79
2022/01/04 02:54:41;;;;;;;0.10;0.10;;;7.90;99.90;;;;;;5147851;28;20181;-81
2022/01/04 02:57:07;;;;;;;0.10;0.10;;;7.60;99.90;;;;;;5131072;28;20043;-79
2022/01/04 02:59:34;;;;;;;0.00;0.00;;;7.60;99.90;;;;;;5147878;28;20108;-79
2022/01/04 03:02:01;;;;;;;0.20;0.15;;;7.60;99.90;;;;;;5131321;28;20219;-79
2022/01/04 03:04:28;;;;;;;0.00;0.00;;;7.60;99.90;;;;;;5164912;27;20101;-79
2022/01/04 03:06:54;;;;;;;0.00;0.00;;;7.60;99.90;;;;;;5113715;28;20058;-81
2022/01/04 03:09:21;;;;;;;0.10;0.10;;;8.20;99.90;;;;;;5130627;28;20047;-79
2022/01/04 03:11:48;;;;;;;0.00;0.00;;;7.60;99.90;;;;;;5113931;28;20032;-79
2022/01/04 03:14:15;;;;;;;0.00;0.00;;;7.50;99.90;;;;;;5113601;28;20047;-81
2022/01/04 03:16:41;;;;;;;0.00;0.00;;;7.50;99.90;;;;;;5147645;28;20053;-81
2022/01/04 03:19:09;;;;;;;9.75;0.35;;;7.50;99.90;;;;;;5130651;28;20407;-79
2022/01/04 03:21:38;;;;;;;0.00;0.00;;;7.50;99.90;;;;;;5113791;28;20496;-81
2022/01/04 03:24:07;;;;;;;0.08;0.08;;;7.50;99.90;;;;;;5130677;28;20051;-81
2022/01/04 03:26:34;;;;;;;0.05;0.05;;;7.50;99.90;;;;;;5130381;28;20043;-79
2022/01/04 03:29:01;;;;;;;0.00;0.00;;;7.50;99.90;;;;;;5130556;28;20488;-78
2022/01/04 03:31:29;;;;;;;0.00;0.00;;;7.50;99.90;;;;;;5147475;28;20036;-81
2022/01/04 03:33:56;;;;;;;0.08;0.08;;;7.50;99.90;;;;;;5164516;27;20039;-81
2022/01/04 03:36:24;;;;;;;0.10;0.10;;;7.50;99.90;;;;;;5130485;28;20046;-79
2022/01/04 03:38:55;;;;;;;0.00;0.00;;;7.50;99.90;;;;;;5113901;28;20075;-81
2022/01/04 03:41:24;;;;;;;0.10;0.10;;;7.50;99.90;;;;;;5164390;27;20046;-81
2022/01/04 03:43:52;;;;;;;0.00;0.00;;;7.50;99.90;;;;;;5147041;28;20595;-81
2022/01/04 03:46:19;;;;;;;0.38;0.38;;;7.50;99.90;;;;;;5147573;28;20049;-81
2022/01/04 03:48:46;;;;;;;0.10;0.10;;;7.50;99.90;;;;;;5146848;28;20042;-81
2022/01/04 03:51:12;;;;;;;0.00;0.00;;;7.50;99.90;;;;;;5164433;27;20035;-81
2022/01/04 03:53:39;;;;;;;0.00;0.00;;;7.50;99.90;;;;;;5129806;28;20044;-79
2022/01/04 03:56:06;;;;;;;0.00;0.00;;;7.50;99.90;;;;;;5164489;27;20086;-81
2022/01/04 03:58:33;;;;;;;0.10;0.10;;;7.40;99.90;;;;;;5112381;28;20116;-79
2022/01/04 04:01:01;;;;;;;0.00;0.00;;;7.40;99.90;;;;;;5129896;28;20043;-79
2022/01/04 04:03:28;;;;;;;0.10;0.10;;;7.40;99.90;;;;;;5147073;28;20075;-79
2022/01/04 04:05:55;;;;;;;0.10;0.10;;;7.40;99.90;;;;;;5130316;28;20084;-81
2022/01/04 04:08:22;;;;;;;0.00;0.00;;;7.40;99.90;;;;;;5146401;28;20671;-81
2022/01/04 04:10:48;;;;;;;0.10;0.10;;;7.40;99.90;;;;;;5146509;28;20051;-79
2022/01/04 04:13:15;;;;;;;0.10;0.10;;;7.40;99.90;;;;;;5146876;28;20044;-81
2022/01/04 04:15:43;;;;;;;0.10;0.10;;;7.40;99.90;;;;;;5112619;28;20036;-82
2022/01/04 04:18:11;;;;;;;0.10;0.10;;;7.30;99.90;;;;;;5130086;28;20484;-79
2022/01/04 04:20:38;;;;;;;0.00;0.00;;;7.40;99.90;;;;;;5163716;27;20134;-79
2022/01/04 04:23:06;;;;;;;0.00;0.00;;;7.40;99.90;;;;;;5163837;27;20061;-79
2022/01/04 04:25:33;;;;;;;0.45;0.40;;;7.40;99.90;;;;;;5112786;28;20035;-81
2022/01/04 04:28:01;;;;;;;0.03;0.03;;;7.40;99.90;;;;;;5163908;27;20050;-82
2022/01/04 04:30:28;;;;;;;0.10;0.10;;;7.40;99.90;;;;;;5146737;28;20075;-79
2022/01/04 04:32:54;;;;;;;0.00;0.00;;;7.40;99.90;;;;;;5146675;28;20035;-79
2022/01/04 04:35:21;;;;;;;0.00;0.00;;;7.40;99.90;;;;;;5146417;28;20406;-79
2022/01/04 04:37:48;;;;;;;0.10;0.10;;;7.40;99.90;;;;;;5163772;28;20043;-79
2022/01/04 04:40:15;;;;;;;0.00;0.00;;;7.40;99.90;;;;;;5146593;28;20058;-78
2022/01/04 04:42:42;;;;;;;0.05;0.05;;;7.40;99.90;;;;;;5112685;28;20036;-81
2022/01/04 04:45:09;;;;;;;0.10;0.10;;;7.40;99.90;;;;;;5116691;28;20046;-81
2022/01/04 04:47:36;;;;;;;0.00;0.00;;;7.40;99.90;;;;;;5133979;28;20046;-79
2022/01/04 04:50:04;;;;;;;0.00;0.00;;;7.40;99.90;;;;;;5134040;28;20127;-79
2022/01/04 04:52:30;;;;;;;0.10;0.10;;;7.40;99.90;;;;;;5168156;27;20040;-81
2022/01/04 04:54:58;;;;;;;0.10;0.10;;;7.40;99.90;;;;;;5116463;28;20043;-79
2022/01/04 04:57:24;;;;;;;0.00;0.00;;;7.40;99.90;;;;;;5116774;28;20476;-81
2022/01/04 04:59:51;;;;;;;0.00;0.00;;;7.40;99.90;;;;;;5116147;28;20040;-79
2022/01/04 05:02:18;;;;;;;0.00;0.00;;;7.40;99.90;;;;;;5133609;28;20039;-82
2022/01/04 05:04:45;;;;;;;0.00;0.00;;;7.60;99.90;;;;;;5167574;27;20492;-79
2022/01/04 05:07:12;;;;;;;0.00;0.00;;;7.50;99.90;;;;;;5150384;28;20055;-82
2022/01/04 05:09:38;;;;;;;0.10;0.10;;;7.50;99.90;;;;;;5150343;28;20537;-81
2022/01/04 05:12:06;;;;;;;0.10;0.10;;;7.50;99.90;;;;;;5150395;28;20392;-79
2022/01/04 05:14:33;;;;;;;0.00;0.00;;;7.40;99.90;;;;;;5167727;27;20130;-81
2022/01/04 05:17:00;;;;;;;0.00;0.00;;;7.40;99.90;;;;;;5167719;27;20040;-81
2022/01/04 05:19:26;;;;;;;0.10;0.10;;;7.40;99.90;;;;;;5133324;28;20051;-81
2022/01/04 05:21:53;;;;;;;0.20;0.20;;;7.40;99.90;;;;;;5132798;28;20082;-81
2022/01/04 05:24:20;;;;;;;0.00;0.00;;;7.60;99.90;;;;;;5167326;27;20047;-79
2022/01/04 05:26:47;;;;;;;0.00;0.00;;;7.40;99.90;;;;;;5132802;28;20036;-81
2022/01/04 05:29:13;;;;;;;0.00;0.00;;;7.40;99.90;;;;;;5167714;27;20065;-79
2022/01/04 05:31:40;;;;;;;0.10;0.10;;;7.40;99.90;;;;;;5167203;27;20499;-79
2022/01/04 05:34:07;;;;;;;0.00;0.00;;;7.50;99.90;;;;;;5150404;28;20373;-81
2022/01/04 05:36:33;;;;;;;0.08;0.08;;;7.50;99.90;;;;;;5116447;28;20455;-81
2022/01/04 05:39:00;;;;;;;0.03;0.03;;;7.50;99.90;;;;;;5132701;28;20451;-79
2022/01/04 05:41:27;;;;;;;0.03;0.03;;;7.50;99.90;;;;;;5115966;28;20039;-81
2022/01/04 05:43:54;;;;;;;0.10;0.10;;;7.50;99.90;;;;;;5148896;28;20050;-81
2022/01/04 05:46:20;;;;;;;0.00;0.00;;;7.50;99.90;;;;;;5166881;27;20044;-81
2022/01/04 05:48:47;;;;;;;0.00;0.00;;;7.50;99.90;;;;;;5115671;28;20031;-81
2022/01/04 05:51:14;;;;;;;0.08;0.08;;;7.50;99.90;;;;;;5167118;27;20035;-81
2022/01/04 05:53:40;;;;;;;0.10;0.10;;;7.50;99.90;;;;;;5149364;28;20492;-79
2022/01/04 05:56:07;;;;;;;0.10;0.10;;;7.50;99.90;;;;;;5132481;28;20111;-81
2022/01/04 05:58:34;;;;;;;0.00;0.00;;;7.50;99.90;;;;;;5149683;28;20122;-80
2022/01/04 06:01:01;;;;;;;0.08;0.08;;;7.50;99.90;;;;;;5115284;28;20039;-81
2022/01/04 06:03:28;;;;;;;0.10;0.10;;;7.40;99.90;;;;;;5115774;28;20040;-81
2022/01/04 06:05:55;;;;;;;0.03;0.03;;;7.40;99.90;;;;;;5115246;28;20516;-81
2022/01/04 06:08:22;;;;;;;0.10;0.10;;;7.50;99.90;;;;;;5115241;28;20176;-79
2022/01/04 06:10:54;;;;;;;0.00;0.00;;;7.40;99.90;;;;;;5132834;28;20044;-79
2022/01/04 06:16:06;;;;;;;0.00;0.00;;;7.50;99.90;;;;;;5134630;28;20051;-81
2022/01/04 06:18:33;;;;;;;0.00;0.00;;;7.50;99.90;;;;;;5132526;28;20404;-81
2022/01/04 06:20:59;;;;;;;0.08;0.08;;;7.50;99.90;;;;;;5145406;28;20548;-82
2022/01/04 06:23:26;;;;;;;0.00;0.00;;;7.70;99.90;;;;;;5131791;28;20035;-82
2022/01/04 06:25:53;;;;;;;0.00;0.00;;;7.50;99.90;;;;;;5131853;28;20522;-82
2022/01/04 06:28:21;;;;;;;0.10;0.10;;;7.50;99.90;;;;;;5115081;28;20418;-79
2022/01/04 06:30:50;;;;;;;0.10;0.10;;;7.50;99.90;;;;;;5162682;27;20039;-81
2022/01/04 06:33:21;;;;;;;0.00;0.00;;;7.50;99.90;;;;;;5148549;28;20044;-81
2022/01/04 06:35:49;;;;;;;0.00;0.00;;;7.40;99.90;;;;;;5136878;28;20054;-79
2022/01/04 06:38:16;;;;;;;0.10;0.10;;;7.40;99.90;;;;;;5131664;28;20032;-82
2022/01/04 06:40:43;;;;;;;0.10;0.10;;;7.40;99.90;;;;;;5151209;27;20040;-81
2022/01/04 06:43:10;;;;;;;0.00;0.00;;;7.40;99.90;;;;;;5130952;28;20097;-81
2022/01/04 06:45:37;;;;;;;0.00;0.00;;;7.40;99.90;;;;;;5147529;28;20027;-78
2022/01/04 06:48:04;;;;;;;0.08;0.08;;;7.40;99.90;;;;;;5142609;28;20130;-79
2022/01/04 06:50:31;;;;;;;0.00;0.00;;;7.40;99.90;;;;;;5145299;27;20361;-82
2022/01/04 06:52:58;;;;;;;0.00;0.00;;;7.40;99.90;;;;;;5094705;28;20039;-79
2022/01/04 06:55:25;;;;;;;0.10;0.10;;;7.40;99.90;;;;;;5131510;28;20491;-78
2022/01/04 06:57:52;;;;;;;0.00;0.00;;;7.40;99.90;;;;;;5097438;28;20036;-81
2022/01/04 07:00:18;;;;;;;0.00;0.00;;;7.50;99.90;;;;;;5131676;28;20061;-81
2022/01/04 07:02:45;;;;;;;0.00;0.00;;;7.40;99.90;;;;;;5148503;28;20495;-81
2022/01/04 07:05:12;;;;;;;0.00;0.00;;;7.40;99.90;;;;;;5129797;28;20035;-79
2022/01/04 07:07:38;;;;;;;0.03;0.03;;;7.40;99.90;;;;;;5134854;28;20071;-82
2022/01/04 07:10:06;;;;;;;0.00;0.00;;;7.40;99.90;;;;;;5129882;28;20509;-79
2022/01/04 07:12:32;;;;;;;0.10;0.10;;;7.40;99.90;;;;;;5131013;28;20042;-82
2022/01/04 07:14:59;;;;;;;0.00;0.00;;;7.40;99.90;;;;;;5130500;28;20032;-82
2022/01/04 07:17:26;;;;;;;0.30;0.10;;;7.40;99.90;;;;;;5113437;28;20040;-81
2022/01/04 07:19:53;;;;;;;0.10;0.10;;;7.50;99.90;;;;;;5147556;28;20051;-81
2022/01/04 07:22:19;;;;;;;0.00;0.00;;;7.50;99.90;;;;;;5130795;28;20039;-82
2022/01/04 07:24:46;;;;;;;0.00;0.00;;;7.50;99.90;;;;;;5096881;28;20403;-79
2022/01/04 07:27:13;;;;;;;0.00;0.00;;;7.50;99.90;;;;;;5113259;28;20491;-78
2022/01/04 07:29:39;;;;;;;0.10;0.10;;;7.50;99.90;;;;;;5096044;28;20031;-78
2022/01/04 07:32:06;;;;;;;0.00;0.00;;;7.50;99.90;;;;;;5110050;28;20032;-81
2022/01/04 07:34:33;;;;;;;0.05;0.05;;;7.50;99.90;;;;;;5133487;28;20036;-82
2022/01/04 07:37:00;;;;;;;0.03;0.03;;;7.40;99.90;;;;;;5111834;28;20036;-81
2022/01/04 07:39:26;;;;;;;0.10;0.10;;;7.50;99.90;;;;;;5091382;28;20521;-81
2022/01/04 07:41:55;;;;;;;0.10;0.10;;;7.50;99.90;;;;;;5126016;28;20431;-81
2022/01/04 07:44:21;;;;;;;0.10;0.10;;;7.50;99.90;;;;;;5153405;27;20137;-81
2022/01/04 07:46:48;;;;;;;0.10;0.10;;;7.40;99.90;;;;;;5105694;28;20064;-81
2022/01/04 07:49:16;;;;;;;0.08;0.08;;;7.40;99.90;;;;;;5129540;28;20055;-78
2022/01/04 07:51:42;;;;;;;0.00;0.00;;;7.30;99.90;;;;;;5133407;28;20032;-78
2022/01/04 07:54:09;;;;;;;0.10;0.10;;;7.30;99.90;;;;;;5108772;28;20047;-78
2022/01/04 07:56:36;;;;;;;0.00;0.00;;;7.30;99.90;;;;;;5108921;28;20136;-83
2022/01/04 07:59:03;;;;;;;0.00;0.00;;;7.30;99.90;;;;;;5126108;28;20039;-78
2022/01/04 08:01:30;;;;;;;0.00;0.00;;;7.30;99.90;;;;;;5129413;28;20075;-78
2022/01/04 08:03:57;;;;;;;0.20;0.20;;;7.30;99.90;;;;;;5128675;28;20560;-79
2022/01/04 08:06:24;;;;;;;0.10;0.10;;;7.30;99.90;;;;;;5145868;28;20042;-78
2022/01/04 08:08:51;;;;;;;0.10;0.10;;;7.50;99.90;;;;;;5112931;28;20052;-81
2022/01/04 08:11:19;;;;;;;0.00;0.00;;;7.30;99.90;;;;;;5108000;28;20051;-83
2022/01/04 08:13:45;;;;;;;0.00;0.00;;;7.30;99.90;;;;;;5111202;28;20044;-81
2022/01/04 08:16:15;;;;;;;0.00;0.00;;;7.30;99.90;;;;;;5112348;28;20054;-84
2022/01/04 08:18:42;;;;;;;0.35;0.35;;;7.30;99.90;;;;;;5128052;28;20039;-84
2022/01/04 08:21:09;;;;;;;0.08;0.08;;;7.30;99.90;;;;;;5115278;28;20061;-83
2022/01/04 08:23:37;;;;;;;0.00;0.00;;;7.30;99.90;;;;;;5131345;28;20039;-83
2022/01/04 08:26:04;;;;;;;0.00;0.00;;;7.80;99.90;;;;;;5128962;28;20035;-80
2022/01/04 08:28:30;;;;;;;0.10;0.10;;;7.30;99.90;;;;;;5129710;28;20075;-81
2022/01/04 08:30:57;;;;;;;0.03;0.03;;;7.30;99.90;;;;;;5129126;28;20086;-83
2022/01/04 08:33:24;;;;;;;0.10;0.10;;;7.40;99.90;;;;;;5112632;28;20050;-81
2022/01/04 08:35:51;;;;;;;0.10;0.10;;;7.40;99.90;;;;;;5109141;28;20473;-83
2022/01/04 08:38:17;;;;;;;0.10;0.10;;;7.70;99.90;;;;;;5108609;28;20048;-81
2022/01/04 08:40:44;;;;;;;0.10;0.10;;;7.30;99.90;;;;;;5142691;28;20046;-83
2022/01/04 08:43:11;;;;;;;0.08;0.08;;;7.30;99.90;;;;;;5145563;28;20090;-81
2022/01/04 08:45:38;;;;;;;0.00;0.00;;;7.30;99.90;;;;;;5128378;28;20043;-83
2022/01/04 08:48:05;;;;;;;0.00;0.00;;;7.20;99.90;;;;;;5128939;28;20043;-83
2022/01/04 08:50:32;;;;;;;0.10;0.10;;;7.20;99.90;;;;;;5112389;28;20036;-83
2022/01/04 08:52:58;;;;;;;0.05;0.05;;;7.10;99.90;;;;;;5146070;28;20032;-82
2022/01/04 08:55:25;;;;;;;0.00;0.00;;;7.10;99.90;;;;;;5112530;28;20031;-81
2022/01/04 08:57:52;;;;;;;0.00;0.00;;;7.00;99.90;;;;;;5112514;28;20043;-84
2022/01/04 09:00:20;;;;;;;0.00;0.00;;;7.00;99.90;;;;;;5129080;28;20071;-83
2022/01/04 09:02:47;;;;;;;0.00;0.00;;;6.90;99.90;;;;;;5129244;28;20058;-81
2022/01/04 09:05:14;;;;;;;0.00;0.00;;;6.90;99.90;;;;;;5112042;28;20047;-83
2022/01/04 09:07:41;;;;;;;0.03;0.03;;;6.90;99.90;;;;;;5111640;28;20107;-83
2022/01/04 09:10:08;;;;;;;0.00;0.00;;;6.90;99.90;;;;;;5146105;28;20043;-81
2022/01/04 09:13:19;;;;;;;0.05;0.05;;;6.90;99.90;;;;;;5128741;28;20044;-83
2022/01/04 09:15:45;;;;;;;0.00;0.00;;;6.90;99.90;;;;;;5111398;28;20043;-83
2022/01/04 09:20:58;;;;;;;0.00;0.00;;;6.90;99.90;;;;;;5117006;28;20531;-80
2022/01/04 09:23:26;;;;;;;0.10;0.10;;;6.90;99.90;;;;;;5127622;28;20042;-82
2022/01/04 09:25:54;;;;;;;0.00;0.00;;;6.90;99.90;;;;;;5094893;28;20071;-80
2022/01/04 09:28:22;;;;;;;0.00;0.00;;;6.90;99.90;;;;;;5108082;28;20140;-80
2022/01/04 09:30:52;;;;;;;0.08;0.08;;;6.90;99.90;;;;;;5160080;27;20031;-79
2022/01/04 09:33:20;;;;;;;0.00;0.00;;;7.00;99.90;;;;;;5149830;27;20047;-82
2022/01/04 09:35:49;;;;;;;0.00;0.00;;;7.00;99.90;;;;;;5132978;28;20042;-82
2022/01/04 09:38:16;;;;;;;0.10;0.10;;;7.00;99.90;;;;;;5131527;28;20492;-84
2022/01/04 09:40:43;;;;;;;0.10;0.10;;;7.00;99.90;;;;;;5172816;27;20737;-80
2022/01/04 09:43:10;;;;;;;0.10;0.10;;;7.00;99.90;;;;;;5132176;28;20039;-80
2022/01/04 09:45:38;;;;;;;0.10;0.10;;;7.00;99.90;;;;;;5115327;28;20092;-83
2022/01/04 09:48:05;;;;;;;0.10;0.10;;;7.00;99.90;;;;;;5131833;28;20043;-79
2022/01/04 09:50:34;;;;;;;0.05;0.05;;;6.90;99.90;;;;;;5132363;28;20043;-82
2022/01/04 09:53:01;;;;;;;0.00;0.00;;;7.00;99.90;;;;;;5143670;27;20417;-80
2022/01/04 09:55:28;;;;;;;0.00;0.00;;;6.90;99.90;;;;;;5149480;28;20039;-80
2022/01/04 09:57:55;;;;;;;0.05;0.05;;;6.90;99.90;;;;;;5132406;28;20083;-80
2022/01/04 10:00:23;;;;;;;0.10;0.10;;;6.90;99.90;;;;;;5099005;28;20799;-83
2022/01/04 10:02:50;;;;;;;0.10;0.10;;;7.20;99.90;;;;;;5132389;28;20047;-80
2022/01/04 10:05:20;;;;;;;0.20;0.20;;;6.90;99.90;;;;;;5114968;28;20040;-81
2022/01/04 10:07:48;;;;;;;0.08;0.08;;;6.90;99.90;;;;;;5131843;28;20380;-81
2022/01/04 10:10:17;;;;;;;0.10;0.10;;;6.90;99.90;;;;;;5131815;28;20089;-82
2022/01/04 10:13:09;;;;;;;0.08;0.08;;;6.80;99.90;;;;;;5132264;28;20122;-83
2022/01/04 10:15:37;;;;;;;0.03;0.03;;;6.60;99.90;;;;;;5139319;28;20047;-83
2022/01/04 10:18:25;;;;;;;0.00;0.00;;;6.50;99.90;;;;;;5131702;28;20044;-81
2022/01/04 10:20:58;;;;;;;0.08;0.08;;;6.50;99.90;;;;;;5148603;28;20050;-79
2022/01/04 10:23:26;;;;;;;0.10;0.10;;;6.40;99.90;;;;;;5131496;28;20150;-79
2022/01/04 10:26:02;;;;;;;0.10;0.10;;;6.40;99.90;;;;;;5131846;28;20508;-80
2022/01/04 10:28:32;;;;;;;;;;;6.40;99.90;;;;;;5148565;28;20139;-79
2022/01/04 10:31:02;;;;;;;0.10;0.10;;;6.30;99.90;;;;;;5131752;28;20455;-80
2022/01/04 10:33:31;;;;;;;0.10;0.10;;;6.40;99.90;;;;;;5159178;27;20039;-82
2022/01/04 10:36:00;;;;;;;0.10;0.10;;;6.30;99.90;;;;;;5148528;28;20054;-80
2022/01/04 10:38:33;;;;;;;0.00;0.00;;;6.30;99.90;;;;;;5165615;27;20042;-80
2022/01/04 10:41:26;;;;;;;0.10;0.10;;;6.20;99.90;;;;;;5130918;28;20496;-80
2022/01/04 10:44:02;;;;;;;0.03;0.03;;;6.30;99.90;;;;;;5139280;28;20142;-82
2022/01/04 10:46:33;;;;;;;0.10;0.10;;;6.20;99.90;;;;;;5130979;28;20031;-82
2022/01/04 10:49:00;;;;;;;0.05;0.05;;;6.90;99.90;;;;;;5114694;28;20071;-81
2022/01/04 10:51:28;;;;;;;0.00;0.00;;;6.20;99.90;;;;;;5131149;28;20035;-80
2022/01/04 10:54:00;;;;;;;0.10;0.10;;;6.20;99.90;;;;;;5148466;28;20039;-82
2022/01/04 10:56:31;;;;;;;0.10;0.10;;;6.30;99.90;;;;;;5148268;28;20035;-80
2022/01/04 10:59:01;;;;;;;0.10;0.10;;;6.20;99.90;;;;;;5133659;28;20557;-82
2022/01/04 11:01:30;;;;;;;0.03;0.03;;;6.40;99.90;;;;;;5130798;28;20054;-82
2022/01/04 11:04:01;;;;;;;0.10;0.10;;;6.20;99.90;;;;;;5131113;28;20040;-82
2022/01/04 11:06:36;;;;;;;0.00;0.00;;;6.20;99.90;;;;;;5130763;28;20119;-80
2022/01/04 11:09:04;;;;;;;0.10;0.10;;;6.10;99.90;;;;;;5130444;28;20411;-81
2022/01/04 11:11:32;;;;;;;0.10;0.10;;;6.00;99.90;;;;;;5129915;28;20491;-80
2022/01/04 11:13:59;;;;;;;0.10;0.10;;;6.00;99.90;;;;;;5097645;28;20036;-82
2022/01/04 11:16:29;;;;;;;0.10;0.10;;;6.10;99.90;;;;;;5147103;28;20122;-80
2022/01/04 11:18:57;;;;;;;0.05;0.05;;;5.80;99.90;;;;;;5130593;28;20039;-81
2022/01/04 11:21:31;;;;;;;0.10;0.10;;;5.90;99.90;;;;;;5144227;28;20160;-80
2022/01/04 11:24:01;;;;;;;0.10;0.10;;;6.20;99.90;;;;;;5147610;28;20044;-82
2022/01/04 11:26:28;;;;;;;0.10;0.10;;;5.70;99.90;;;;;;5130456;28;20043;-80
2022/01/04 11:28:56;;;;;;;0.00;0.00;;;5.80;99.90;;;;;;5112942;28;20046;-82
2022/01/04 11:31:44;;;;;;;0.10;0.10;;;5.70;99.90;;;;;;5129969;28;20518;-79
2022/01/04 11:34:26;;;;;;;0.10;0.10;;;5.70;99.90;;;;;;5129644;28;20081;-79
2022/01/04 11:36:53;;;;;;;0.10;0.10;;;5.70;99.90;;;;;;5147828;28;20044;-83
2022/01/04 11:39:41;;;;;;;0.10;0.10;;;5.80;99.90;;;;;;5129963;28;20043;-83
2022/01/04 11:42:10;;;;;;;0.10;0.10;;;5.80;99.90;;;;;;5129869;28;20097;-80
2022/01/04 11:44:44;;;;;;;0.10;0.10;;;5.70;99.90;;;;;;5181439;27;20043;-80
2022/01/04 11:47:18;;;;;;;0.05;0.05;;;5.70;99.90;;;;;;5129964;28;20104;-80
2022/01/04 11:50:20;;;;;;;0.00;0.00;;;5.90;99.90;;;;;;5130520;28;20039;-80
2022/01/04 11:52:59;;;;;;;0.10;0.10;;;5.60;99.90;;;;;;5147034;28;20090;-80
2022/01/04 11:55:34;;;;;;;0.10;0.10;;;5.60;99.90;;;;;;5129474;28;20047;-80
2022/01/04 11:58:14;;;;;;;0.10;0.10;;;5.50;99.90;;;;;;5155112;27;20122;-80
2022/01/04 12:00:45;;;;;;;0.10;0.10;;;5.50;99.90;;;;;;5155662;27;20046;-83
2022/01/04 12:03:19;;;;;;;0.10;0.10;;;5.40;99.90;;;;;;5146145;28;20415;-82
2022/01/04 12:05:55;;;;;;;0.10;0.10;;;5.50;99.90;;;;;;5163903;27;20040;-80
2022/01/04 12:08:32;;;;;;;0.10;0.10;;;5.40;99.90;;;;;;5129186;28;20047;-80
2022/01/04 12:10:58;;;;;;;0.10;0.10;;;5.30;99.90;;;;;;5163858;27;20412;-83
2022/01/04 12:13:45;;;;;;;0.10;0.10;;;5.20;99.90;;;;;;5112413;28;20047;-79
2022/01/04 12:16:12;;;;;;;0.10;0.10;;;5.20;99.90;;;;;;5129708;28;20043;-82
2022/01/04 12:18:39;;;;;;;0.10;0.10;;;5.30;99.90;;;;;;5112814;28;20511;-83
2022/01/04 12:21:14;;;;;;;0.10;0.10;;;5.50;99.90;;;;;;5129477;28;20035;-80
2022/01/04 12:23:48;;;;;;;0.10;0.10;;;5.10;99.90;;;;;;5146222;28;20040;-82
2022/01/04 12:26:15;;;;;;;0.10;0.10;;;5.20;99.90;;;;;;5137594;28;20470;-82
2022/01/04 12:28:44;;;;;;;0.10;0.10;;;5.10;99.90;;;;;;5157950;27;20050;-83
2022/01/04 12:31:16;;;;;;;0.10;0.10;;;5.20;99.90;;;;;;5129190;28;20199;-80
2022/01/04 12:33:44;;;;;;;0.10;0.10;;;5.20;99.90;;;;;;5129098;28;20054;-82
2022/01/04 12:36:23;;;;;;;0.10;0.10;;;5.30;99.90;;;;;;5129166;28;20638;-79
2022/01/04 12:38:51;;;;;;;0.10;0.10;;;5.90;99.90;;;;;;5155841;27;20043;-80
2022/01/04 12:41:19;;;;;;;0.10;0.10;;;5.30;99.90;;;;;;5110811;28;20042;-82
2022/01/04 12:43:47;;;;;;;0.10;0.10;;;5.40;99.90;;;;;;5126639;28;20040;-83
2022/01/04 12:46:14;;;;;;;0.00;0.00;;;5.30;99.90;;;;;;5129061;28;20050;-82
2022/01/04 12:48:49;;;;;;;0.10;0.10;;;5.40;99.90;;;;;;5129136;28;20491;-82
2022/01/04 12:51:26;;;;;;;0.10;0.10;;;5.40;99.90;;;;;;5126379;28;20031;-79
2022/01/04 12:53:55;;;;;;;0.10;0.10;;;5.40;99.90;;;;;;5146278;28;20043;-79
2022/01/04 12:56:21;;;;;;;0.10;0.10;;;5.50;99.90;;;;;;5111687;28;20134;-79
2022/01/04 12:58:48;;;;;;;0.10;0.10;;;5.50;99.90;;;;;;5096225;28;20135;-82
2022/01/04 13:01:28;;;;;;;0.10;0.10;;;6.00;99.90;;;;;;5112259;28;20096;-79
2022/01/04 13:03:56;;;;;;;0.10;0.10;;;5.40;99.90;;;;;;5129720;28;20086;-82
2022/01/04 13:06:23;;;;;;;0.08;0.08;;;5.50;99.90;;;;;;5132832;28;20104;-79
2022/01/04 13:08:55;;;;;;;0.00;0.00;;;5.50;99.90;;;;;;5150123;28;20575;-82
2022/01/04 13:11:22;;;;;;;0.10;0.10;;;5.50;99.90;;;;;;5115598;28;20043;-81